sensor_id;sensor_type;location;lat;lon;timestamp;pressure;altitude;pressure_sealevel;temperature
58929;BMP180;44713;53.378;10.022;2023-01-28T00:00:23;102629.00;;;1.80
58929;BMP180;44713;53.378;10.022;2023-01-28T00:02:49;102618.00;;;1.90
58929;BMP180;44713;53.378;10.022;2023-01-28T00:05:15;102619.00;;;1.80
58929;BMP180;44713;53.378;10.022;2023-01-28T00:07:40;102615.00;;;1.70
58929;BMP180;44713;53.378;10.022;2023-01-28T00:10:05;102611.00;;;1.80
58929;BMP180;44713;53.378;10.022;2023-01-28T00:12:31;102622.00;;;1.80
58929;BMP180;44713;53.378;10.022;2023-01-28T00:14:56;102623.00;;;1.80
58929;BMP180;44713;53.378;10.022;2023-01-28T00:17:21;102616.00;;;1.80
58929;BMP180;44713;53.378;10.022;2023-01-28T00:19:47;102619.00;;;1.80
58929;BMP180;44713;53.378;10.022;2023-01-28T00:22:12;102626.00;;;1.70
58929;BMP180;44713;53.378;10.022;2023-01-28T00:24:37;102618.00;;;1.80
58929;BMP180;44713;53.378;10.022;2023-01-28T00:27:03;102623.00;;;1.80
58929;BMP180;44713;53.378;10.022;2023-01-28T00:29:28;102621.00;;;1.80
58929;BMP180;44713;53.378;10.022;2023-01-28T00:31:53;102623.00;;;1.80
58929;BMP180;44713;53.378;10.022;2023-01-28T00:34:19;102622.00;;;1.80
58929;BMP180;44713;53.378;10.022;2023-01-28T00:36:45;102630.00;;;1.80
58929;BMP180;44713;53.378;10.022;2023-01-28T00:39:21;102627.00;;;1.80
58929;BMP180;44713;53.378;10.022;2023-01-28T00:41:47;102629.00;;;1.80
58929;BMP180;44713;53.378;10.022;2023-01-28T00:44:12;102622.00;;;1.60
58929;BMP180;44713;53.378;10.022;2023-01-28T00:46:37;102617.00;;;1.60
58929;BMP180;44713;53.378;10.022;2023-01-28T00:49:03;102624.00;;;1.70
58929;BMP180;44713;53.378;10.022;2023-01-28T00:51:28;102625.00;;;1.70
58929;BMP180;44713;53.378;10.022;2023-01-28T00:53:54;102612.00;;;1.70
58929;BMP180;44713;53.378;10.022;2023-01-28T00:56:19;102613.00;;;1.70
58929;BMP180;44713;53.378;10.022;2023-01-28T00:58:45;102626.00;;;1.70
58929;BMP180;44713;53.378;10.022;2023-01-28T01:01:16;102623.00;;;1.70
58929;BMP180;44713;53.378;10.022;2023-01-28T01:03:42;102619.00;;;1.80
58929;BMP180;44713;53.378;10.022;2023-01-28T01:06:08;102620.00;;;1.80
58929;BMP180;44713;53.378;10.022;2023-01-28T01:08:34;102619.00;;;1.60
58929;BMP180;44713;53.378;10.022;2023-01-28T01:11:03;102619.00;;;1.70
58929;BMP180;44713;53.378;10.022;2023-01-28T01:13:30;102615.00;;;1.70
58929;BMP180;44713;53.378;10.022;2023-01-28T01:16:07;102614.00;;;1.70
58929;BMP180;44713;53.378;10.022;2023-01-28T01:18:34;102625.00;;;1.70
58929;BMP180;44713;53.378;10.022;2023-01-28T01:21:00;102615.00;;;1.70
58929;BMP180;44713;53.378;10.022;2023-01-28T01:23:26;102619.00;;;1.70
58929;BMP180;44713;53.378;10.022;2023-01-28T01:25:52;102614.00;;;1.70
58929;BMP180;44713;53.378;10.022;2023-01-28T01:28:18;102621.00;;;1.70
58929;BMP180;44713;53.378;10.022;2023-01-28T01:30:45;102617.00;;;1.70
58929;BMP180;44713;53.378;10.022;2023-01-28T01:33:11;102608.00;;;1.70
58929;BMP180;44713;53.378;10.022;2023-01-28T01:35:36;102616.00;;;1.60
58929;BMP180;44713;53.378;10.022;2023-01-28T01:38:02;102608.00;;;1.60
58929;BMP180;44713;53.378;10.022;2023-01-28T01:40:28;102606.00;;;1.60
58929;BMP180;44713;53.378;10.022;2023-01-28T01:42:54;102613.00;;;1.60
58929;BMP180;44713;53.378;10.022;2023-01-28T01:45:19;102618.00;;;1.60
58929;BMP180;44713;53.378;10.022;2023-01-28T01:48:14;102622.00;;;1.60
58929;BMP180;44713;53.378;10.022;2023-01-28T01:51:11;102623.00;;;1.60
58929;BMP180;44713;53.378;10.022;2023-01-28T01:53:42;102619.00;;;1.60
58929;BMP180;44713;53.378;10.022;2023-01-28T01:56:10;102609.00;;;1.60
58929;BMP180;44713;53.378;10.022;2023-01-28T01:58:41;102609.00;;;1.50
58929;BMP180;44713;53.378;10.022;2023-01-28T02:01:07;102611.00;;;1.50
58929;BMP180;44713;53.378;10.022;2023-01-28T02:03:38;102610.00;;;1.50
58929;BMP180;44713;53.378;10.022;2023-01-28T02:06:05;102610.00;;;1.60
58929;BMP180;44713;53.378;10.022;2023-01-28T02:08:30;102606.00;;;1.50
58929;BMP180;44713;53.378;10.022;2023-01-28T02:11:05;102609.00;;;1.50
58929;BMP180;44713;53.378;10.022;2023-01-28T02:13:38;102611.00;;;1.50
58929;BMP180;44713;53.378;10.022;2023-01-28T02:16:06;102610.00;;;1.50
58929;BMP180;44713;53.378;10.022;2023-01-28T02:18:32;102619.00;;;1.50
58929;BMP180;44713;53.378;10.022;2023-01-28T02:21:36;102615.00;;;1.50
58929;BMP180;44713;53.378;10.022;2023-01-28T02:27:23;102608.00;;;1.40
58929;BMP180;44713;53.378;10.022;2023-01-28T02:30:01;102619.00;;;1.40
58929;BMP180;44713;53.378;10.022;2023-01-28T02:32:45;102616.00;;;1.40
58929;BMP180;44713;53.378;10.022;2023-01-28T02:35:19;102617.00;;;1.40
58929;BMP180;44713;53.378;10.022;2023-01-28T02:37:55;102606.00;;;1.40
58929;BMP180;44713;53.378;10.022;2023-01-28T02:40:28;102612.00;;;1.40
58929;BMP180;44713;53.378;10.022;2023-01-28T02:42:56;102606.00;;;1.40
58929;BMP180;44713;53.378;10.022;2023-01-28T02:45:32;102597.00;;;1.40
58929;BMP180;44713;53.378;10.022;2023-01-28T02:48:18;102610.00;;;1.40
58929;BMP180;44713;53.378;10.022;2023-01-28T02:50:57;102604.00;;;1.40
58929;BMP180;44713;53.378;10.022;2023-01-28T02:53:34;102603.00;;;1.30
58929;BMP180;44713;53.378;10.022;2023-01-28T02:56:19;102598.00;;;1.30
58929;BMP180;44713;53.378;10.022;2023-01-28T03:02:13;102608.00;;;1.30
58929;BMP180;44713;53.378;10.022;2023-01-28T03:04:45;102612.00;;;1.20
58929;BMP180;44713;53.378;10.022;2023-01-28T03:07:14;102616.00;;;1.20
58929;BMP180;44713;53.378;10.022;2023-01-28T03:09:42;102606.00;;;1.20
58929;BMP180;44713;53.378;10.022;2023-01-28T03:12:14;102603.00;;;1.20
58929;BMP180;44713;53.378;10.022;2023-01-28T03:15:20;102610.00;;;1.10
58929;BMP180;44713;53.378;10.022;2023-01-28T03:21:40;102613.00;;;1.10
58929;BMP180;44713;53.378;10.022;2023-01-28T03:24:11;102613.00;;;1.10
58929;BMP180;44713;53.378;10.022;2023-01-28T03:27:05;102612.00;;;1.10
58929;BMP180;44713;53.378;10.022;2023-01-28T03:30:01;102612.00;;;1.10
58929;BMP180;44713;53.378;10.022;2023-01-28T03:32:48;102604.00;;;1.10
58929;BMP180;44713;53.378;10.022;2023-01-28T03:35:34;102596.00;;;1.10
58929;BMP180;44713;53.378;10.022;2023-01-28T03:38:19;102601.00;;;1.00
58929;BMP180;44713;53.378;10.022;2023-01-28T03:40:54;102598.00;;;0.90
58929;BMP180;44713;53.378;10.022;2023-01-28T03:43:20;102598.00;;;1.00
58929;BMP180;44713;53.378;10.022;2023-01-28T03:45:46;102608.00;;;1.00
58929;BMP180;44713;53.378;10.022;2023-01-28T03:48:20;102600.00;;;1.10
58929;BMP180;44713;53.378;10.022;2023-01-28T03:50:46;102607.00;;;1.10
58929;BMP180;44713;53.378;10.022;2023-01-28T03:53:13;102598.00;;;1.00
58929;BMP180;44713;53.378;10.022;2023-01-28T03:55:45;102602.00;;;0.90
58929;BMP180;44713;53.378;10.022;2023-01-28T03:58:12;102615.00;;;0.90
58929;BMP180;44713;53.378;10.022;2023-01-28T04:00:38;102614.00;;;0.90
58929;BMP180;44713;53.378;10.022;2023-01-28T04:03:14;102613.00;;;1.00
58929;BMP180;44713;53.378;10.022;2023-01-28T04:08:09;102625.00;;;1.00
58929;BMP180;44713;53.378;10.022;2023-01-28T04:10:54;102626.00;;;1.00
58929;BMP180;44713;53.378;10.022;2023-01-28T04:13:25;102627.00;;;1.00
58929;BMP180;44713;53.378;10.022;2023-01-28T04:15:51;102614.00;;;1.00
58929;BMP180;44713;53.378;10.022;2023-01-28T04:18:17;102614.00;;;0.90
58929;BMP180;44713;53.378;10.022;2023-01-28T04:20:47;102617.00;;;0.90
58929;BMP180;44713;53.378;10.022;2023-01-28T04:23:13;102622.00;;;1.00
58929;BMP180;44713;53.378;10.022;2023-01-28T04:25:39;102615.00;;;0.90
58929;BMP180;44713;53.378;10.022;2023-01-28T04:28:07;102616.00;;;0.90
58929;BMP180;44713;53.378;10.022;2023-01-28T04:30:33;102610.00;;;0.90
58929;BMP180;44713;53.378;10.022;2023-01-28T04:33:04;102606.00;;;0.90
58929;BMP180;44713;53.378;10.022;2023-01-28T04:35:53;102610.00;;;0.80
58929;BMP180;44713;53.378;10.022;2023-01-28T04:38:40;102597.00;;;0.70
58929;BMP180;44713;53.378;10.022;2023-01-28T04:41:19;102590.00;;;0.70
58929;BMP180;44713;53.378;10.022;2023-01-28T04:43:45;102596.00;;;0.70
58929;BMP180;44713;53.378;10.022;2023-01-28T04:46:31;102596.00;;;0.60
58929;BMP180;44713;53.378;10.022;2023-01-28T04:49:22;102599.00;;;0.50
58929;BMP180;44713;53.378;10.022;2023-01-28T04:52:06;102598.00;;;0.40
58929;BMP180;44713;53.378;10.022;2023-01-28T04:54:43;102596.00;;;0.40
58929;BMP180;44713;53.378;10.022;2023-01-28T04:57:09;102597.00;;;0.40
58929;BMP180;44713;53.378;10.022;2023-01-28T04:59:35;102593.00;;;0.30
58929;BMP180;44713;53.378;10.022;2023-01-28T05:02:00;102593.00;;;0.30
58929;BMP180;44713;53.378;10.022;2023-01-28T05:04:26;102600.00;;;0.20
58929;BMP180;44713;53.378;10.022;2023-01-28T05:06:52;102595.00;;;0.10
58929;BMP180;44713;53.378;10.022;2023-01-28T05:09:22;102598.00;;;0.10
58929;BMP180;44713;53.378;10.022;2023-01-28T05:11:49;102611.00;;;0.10
58929;BMP180;44713;53.378;10.022;2023-01-28T05:14:15;102607.00;;;0.00
58929;BMP180;44713;53.378;10.022;2023-01-28T05:16:44;102613.00;;;0.00
58929;BMP180;44713;53.378;10.022;2023-01-28T05:19:10;102613.00;;;0.00
58929;BMP180;44713;53.378;10.022;2023-01-28T05:21:39;102612.00;;;0.00
58929;BMP180;44713;53.378;10.022;2023-01-28T05:24:12;102606.00;;;0.00
58929;BMP180;44713;53.378;10.022;2023-01-28T05:26:37;102607.00;;;0.00
58929;BMP180;44713;53.378;10.022;2023-01-28T05:29:03;102603.00;;;0.00
58929;BMP180;44713;53.378;10.022;2023-01-28T05:31:29;102606.00;;;0.00
58929;BMP180;44713;53.378;10.022;2023-01-28T05:33:55;102608.00;;;0.00
58929;BMP180;44713;53.378;10.022;2023-01-28T05:36:22;102596.00;;;0.00
58929;BMP180;44713;53.378;10.022;2023-01-28T05:38:47;102579.00;;;0.00
58929;BMP180;44713;53.378;10.022;2023-01-28T05:41:13;102587.00;;;0.00
58929;BMP180;44713;53.378;10.022;2023-01-28T05:43:39;102584.00;;;-0.10
58929;BMP180;44713;53.378;10.022;2023-01-28T05:46:26;102578.00;;;-0.10
58929;BMP180;44713;53.378;10.022;2023-01-28T05:49:04;102580.00;;;-0.20
58929;BMP180;44713;53.378;10.022;2023-01-28T05:51:54;102575.00;;;-0.20
58929;BMP180;44713;53.378;10.022;2023-01-28T05:54:21;102571.00;;;-0.30
58929;BMP180;44713;53.378;10.022;2023-01-28T05:56:46;102571.00;;;-0.30
58929;BMP180;44713;53.378;10.022;2023-01-28T05:59:12;102576.00;;;-0.30
58929;BMP180;44713;53.378;10.022;2023-01-28T06:01:40;102579.00;;;-0.30
58929;BMP180;44713;53.378;10.022;2023-01-28T06:04:06;102584.00;;;-0.40
58929;BMP180;44713;53.378;10.022;2023-01-28T06:06:32;102600.00;;;-0.50
58929;BMP180;44713;53.378;10.022;2023-01-28T06:08:58;102597.00;;;-0.60
58929;BMP180;44713;53.378;10.022;2023-01-28T06:11:26;102598.00;;;-0.60
58929;BMP180;44713;53.378;10.022;2023-01-28T06:13:55;102600.00;;;-0.60
58929;BMP180;44713;53.378;10.022;2023-01-28T06:16:27;102586.00;;;-0.60
58929;BMP180;44713;53.378;10.022;2023-01-28T06:19:09;102579.00;;;-0.70
58929;BMP180;44713;53.378;10.022;2023-01-28T06:21:34;102582.00;;;-0.60
58929;BMP180;44713;53.378;10.022;2023-01-28T06:24:00;102581.00;;;-0.60
58929;BMP180;44713;53.378;10.022;2023-01-28T06:26:26;102590.00;;;-0.60
58929;BMP180;44713;53.378;10.022;2023-01-28T06:28:51;102591.00;;;-0.70
58929;BMP180;44713;53.378;10.022;2023-01-28T06:31:17;102585.00;;;-0.70
58929;BMP180;44713;53.378;10.022;2023-01-28T06:33:43;102575.00;;;-0.70
58929;BMP180;44713;53.378;10.022;2023-01-28T06:36:08;102592.00;;;-0.70
58929;BMP180;44713;53.378;10.022;2023-01-28T06:38:34;102602.00;;;-0.70
58929;BMP180;44713;53.378;10.022;2023-01-28T06:40:59;102595.00;;;-0.70
58929;BMP180;44713;53.378;10.022;2023-01-28T06:43:24;102589.00;;;-0.70
58929;BMP180;44713;53.378;10.022;2023-01-28T06:45:55;102588.00;;;-0.70
58929;BMP180;44713;53.378;10.022;2023-01-28T06:48:21;102586.00;;;-0.70
58929;BMP180;44713;53.378;10.022;2023-01-28T06:50:47;102587.00;;;-0.80
58929;BMP180;44713;53.378;10.022;2023-01-28T06:53:13;102593.00;;;-0.80
58929;BMP180;44713;53.378;10.022;2023-01-28T06:55:39;102587.00;;;-0.80
58929;BMP180;44713;53.378;10.022;2023-01-28T06:58:04;102580.00;;;-0.80
58929;BMP180;44713;53.378;10.022;2023-01-28T07:00:30;102577.00;;;-0.80
58929;BMP180;44713;53.378;10.022;2023-01-28T07:02:55;102576.00;;;-0.90
58929;BMP180;44713;53.378;10.022;2023-01-28T07:05:21;102589.00;;;-0.90
58929;BMP180;44713;53.378;10.022;2023-01-28T07:07:47;102579.00;;;-0.90
58929;BMP180;44713;53.378;10.022;2023-01-28T07:10:12;102581.00;;;-0.90
58929;BMP180;44713;53.378;10.022;2023-01-28T07:12:38;102594.00;;;-0.90
58929;BMP180;44713;53.378;10.022;2023-01-28T07:15:04;102611.00;;;-0.90
58929;BMP180;44713;53.378;10.022;2023-01-28T07:17:29;102613.00;;;-1.00
58929;BMP180;44713;53.378;10.022;2023-01-28T07:19:54;102620.00;;;-1.00
58929;BMP180;44713;53.378;10.022;2023-01-28T07:22:20;102626.00;;;-1.00
58929;BMP180;44713;53.378;10.022;2023-01-28T07:24:45;102623.00;;;-1.00
58929;BMP180;44713;53.378;10.022;2023-01-28T07:27:10;102629.00;;;-1.10
58929;BMP180;44713;53.378;10.022;2023-01-28T07:29:36;102645.00;;;-1.10
58929;BMP180;44713;53.378;10.022;2023-01-28T07:32:01;102646.00;;;-1.10
58929;BMP180;44713;53.378;10.022;2023-01-28T07:34:29;102649.00;;;-1.10
58929;BMP180;44713;53.378;10.022;2023-01-28T07:36:54;102647.00;;;-1.20
58929;BMP180;44713;53.378;10.022;2023-01-28T07:39:19;102665.00;;;-1.20
58929;BMP180;44713;53.378;10.022;2023-01-28T07:41:44;102672.00;;;-1.20
58929;BMP180;44713;53.378;10.022;2023-01-28T07:44:28;102670.00;;;-1.10
58929;BMP180;44713;53.378;10.022;2023-01-28T07:46:53;102657.00;;;-1.10
58929;BMP180;44713;53.378;10.022;2023-01-28T07:49:19;102657.00;;;-1.10
58929;BMP180;44713;53.378;10.022;2023-01-28T07:51:44;102657.00;;;-1.10
58929;BMP180;44713;53.378;10.022;2023-01-28T07:54:11;102665.00;;;-1.10
58929;BMP180;44713;53.378;10.022;2023-01-28T07:56:37;102666.00;;;-1.10
58929;BMP180;44713;53.378;10.022;2023-01-28T07:59:03;102655.00;;;-1.00
58929;BMP180;44713;53.378;10.022;2023-01-28T08:01:28;102660.00;;;-1.00
58929;BMP180;44713;53.378;10.022;2023-01-28T08:03:54;102669.00;;;-0.90
58929;BMP180;44713;53.378;10.022;2023-01-28T08:06:19;102671.00;;;-0.90
58929;BMP180;44713;53.378;10.022;2023-01-28T08:08:46;102669.00;;;-0.90
58929;BMP180;44713;53.378;10.022;2023-01-28T08:11:11;102669.00;;;-0.90
58929;BMP180;44713;53.378;10.022;2023-01-28T08:13:37;102683.00;;;-0.90
58929;BMP180;44713;53.378;10.022;2023-01-28T08:16:02;102677.00;;;-0.80
58929;BMP180;44713;53.378;10.022;2023-01-28T08:18:28;102678.00;;;-0.70
58929;BMP180;44713;53.378;10.022;2023-01-28T08:20:57;102690.00;;;-0.70
58929;BMP180;44713;53.378;10.022;2023-01-28T08:23:23;102684.00;;;-0.70
58929;BMP180;44713;53.378;10.022;2023-01-28T08:25:51;102704.00;;;-0.70
58929;BMP180;44713;53.378;10.022;2023-01-28T08:28:17;102685.00;;;-0.70
58929;BMP180;44713;53.378;10.022;2023-01-28T08:30:42;102688.00;;;-0.70
58929;BMP180;44713;53.378;10.022;2023-01-28T08:33:10;102686.00;;;-0.70
58929;BMP180;44713;53.378;10.022;2023-01-28T08:35:35;102697.00;;;-0.60
58929;BMP180;44713;53.378;10.022;2023-01-28T08:38:02;102692.00;;;-0.70
58929;BMP180;44713;53.378;10.022;2023-01-28T08:40:28;102688.00;;;-0.70
58929;BMP180;44713;53.378;10.022;2023-01-28T08:42:54;102689.00;;;-0.70
58929;BMP180;44713;53.378;10.022;2023-01-28T08:45:22;102694.00;;;-0.70
58929;BMP180;44713;53.378;10.022;2023-01-28T08:50:20;102679.00;;;-0.60
58929;BMP180;44713;53.378;10.022;2023-01-28T08:52:46;102688.00;;;-0.60
58929;BMP180;44713;53.378;10.022;2023-01-28T08:55:11;102700.00;;;-0.60
58929;BMP180;44713;53.378;10.022;2023-01-28T08:57:37;102697.00;;;-0.50
58929;BMP180;44713;53.378;10.022;2023-01-28T09:00:05;102692.00;;;-0.60
58929;BMP180;44713;53.378;10.022;2023-01-28T09:02:30;102681.00;;;-0.60
58929;BMP180;44713;53.378;10.022;2023-01-28T09:04:56;102691.00;;;-0.50
58929;BMP180;44713;53.378;10.022;2023-01-28T09:07:21;102691.00;;;-0.40
58929;BMP180;44713;53.378;10.022;2023-01-28T09:09:47;102706.00;;;-0.50
58929;BMP180;44713;53.378;10.022;2023-01-28T09:12:12;102710.00;;;-0.30
58929;BMP180;44713;53.378;10.022;2023-01-28T09:14:37;102716.00;;;-0.20
58929;BMP180;44713;53.378;10.022;2023-01-28T09:17:03;102719.00;;;-0.20
58929;BMP180;44713;53.378;10.022;2023-01-28T09:19:29;102731.00;;;-0.10
58929;BMP180;44713;53.378;10.022;2023-01-28T09:21:54;102730.00;;;-0.10
58929;BMP180;44713;53.378;10.022;2023-01-28T09:24:19;102731.00;;;-0.10
58929;BMP180;44713;53.378;10.022;2023-01-28T09:26:47;102739.00;;;0.00
58929;BMP180;44713;53.378;10.022;2023-01-28T09:29:13;102728.00;;;0.10
58929;BMP180;44713;53.378;10.022;2023-01-28T09:31:39;102736.00;;;0.10
58929;BMP180;44713;53.378;10.022;2023-01-28T09:34:04;102741.00;;;0.10
58929;BMP180;44713;53.378;10.022;2023-01-28T09:36:30;102742.00;;;0.10
58929;BMP180;44713;53.378;10.022;2023-01-28T09:38:56;102747.00;;;0.10
58929;BMP180;44713;53.378;10.022;2023-01-28T09:41:28;102760.00;;;0.10
58929;BMP180;44713;53.378;10.022;2023-01-28T09:44:12;102749.00;;;0.10
58929;BMP180;44713;53.378;10.022;2023-01-28T09:46:42;102758.00;;;0.20
58929;BMP180;44713;53.378;10.022;2023-01-28T09:49:36;102755.00;;;0.30
58929;BMP180;44713;53.378;10.022;2023-01-28T09:52:11;102764.00;;;0.30
58929;BMP180;44713;53.378;10.022;2023-01-28T09:54:46;102756.00;;;0.40
58929;BMP180;44713;53.378;10.022;2023-01-28T09:57:22;102753.00;;;0.50
58929;BMP180;44713;53.378;10.022;2023-01-28T09:59:48;102741.00;;;0.60
58929;BMP180;44713;53.378;10.022;2023-01-28T10:02:36;102757.00;;;0.70
58929;BMP180;44713;53.378;10.022;2023-01-28T10:05:17;102756.00;;;0.80
58929;BMP180;44713;53.378;10.022;2023-01-28T10:10:14;102734.00;;;0.90
58929;BMP180;44713;53.378;10.022;2023-01-28T10:15:49;102705.00;;;1.00
58929;BMP180;44713;53.378;10.022;2023-01-28T10:18:24;102708.00;;;1.10
58929;BMP180;44713;53.378;10.022;2023-01-28T10:21:01;102707.00;;;1.20
58929;BMP180;44713;53.378;10.022;2023-01-28T10:23:38;102712.00;;;1.40
58929;BMP180;44713;53.378;10.022;2023-01-28T10:26:15;102699.00;;;1.40
58929;BMP180;44713;53.378;10.022;2023-01-28T10:28:46;102698.00;;;1.50
58929;BMP180;44713;53.378;10.022;2023-01-28T10:31:15;102692.00;;;1.60
58929;BMP180;44713;53.378;10.022;2023-01-28T10:33:40;102689.00;;;1.70
58929;BMP180;44713;53.378;10.022;2023-01-28T10:36:06;102686.00;;;1.80
58929;BMP180;44713;53.378;10.022;2023-01-28T10:38:34;102672.00;;;1.90
58929;BMP180;44713;53.378;10.022;2023-01-28T10:41:02;102671.00;;;1.90
58929;BMP180;44713;53.378;10.022;2023-01-28T10:43:31;102675.00;;;2.00
58929;BMP180;44713;53.378;10.022;2023-01-28T10:48:24;102674.00;;;2.20
58929;BMP180;44713;53.378;10.022;2023-01-28T10:50:56;102662.00;;;2.30
58929;BMP180;44713;53.378;10.022;2023-01-28T10:53:37;102662.00;;;2.30
58929;BMP180;44713;53.378;10.022;2023-01-28T10:56:09;102654.00;;;2.40
58929;BMP180;44713;53.378;10.022;2023-01-28T10:58:46;102659.00;;;2.50
58929;BMP180;44713;53.378;10.022;2023-01-28T11:01:13;102645.00;;;2.60
58929;BMP180;44713;53.378;10.022;2023-01-28T11:03:52;102628.00;;;2.60
58929;BMP180;44713;53.378;10.022;2023-01-28T11:06:27;102618.00;;;2.70
58929;BMP180;44713;53.378;10.022;2023-01-28T11:08:53;102622.00;;;2.70
58929;BMP180;44713;53.378;10.022;2023-01-28T11:11:24;102596.00;;;2.90
58929;BMP180;44713;53.378;10.022;2023-01-28T11:13:51;102586.00;;;2.90
58929;BMP180;44713;53.378;10.022;2023-01-28T11:16:19;102589.00;;;3.00
58929;BMP180;44713;53.378;10.022;2023-01-28T11:18:54;102605.00;;;2.90
58929;BMP180;44713;53.378;10.022;2023-01-28T11:21:28;102590.00;;;2.80
58929;BMP180;44713;53.378;10.022;2023-01-28T11:24:21;102576.00;;;3.00
58929;BMP180;44713;53.378;10.022;2023-01-28T11:26:50;102583.00;;;3.10
58929;BMP180;44713;53.378;10.022;2023-01-28T11:29:29;102578.00;;;3.30
58929;BMP180;44713;53.378;10.022;2023-01-28T11:31:55;102573.00;;;3.30
58929;BMP180;44713;53.378;10.022;2023-01-28T11:34:26;102576.00;;;3.30
58929;BMP180;44713;53.378;10.022;2023-01-28T11:37:25;102549.00;;;3.60
58929;BMP180;44713;53.378;10.022;2023-01-28T11:40:16;102547.00;;;3.60
58929;BMP180;44713;53.378;10.022;2023-01-28T11:42:45;102543.00;;;3.60
58929;BMP180;44713;53.378;10.022;2023-01-28T11:45:37;102534.00;;;3.20
58929;BMP180;44713;53.378;10.022;2023-01-28T11:51:02;102545.00;;;3.20
58929;BMP180;44713;53.378;10.022;2023-01-28T11:59:37;102545.00;;;3.80
58929;BMP180;44713;53.378;10.022;2023-01-28T12:02:03;102551.00;;;4.00
58929;BMP180;44713;53.378;10.022;2023-01-28T12:07:41;102550.00;;;3.60
58929;BMP180;44713;53.378;10.022;2023-01-28T12:10:23;102535.00;;;3.60
58929;BMP180;44713;53.378;10.022;2023-01-28T12:16:03;102551.00;;;3.80
58929;BMP180;44713;53.378;10.022;2023-01-28T12:18:41;102562.00;;;3.70
58929;BMP180;44713;53.378;10.022;2023-01-28T12:24:16;102536.00;;;4.00
58929;BMP180;44713;53.378;10.022;2023-01-28T12:29:35;102528.00;;;4.20
58929;BMP180;44713;53.378;10.022;2023-01-28T12:32:15;102537.00;;;4.30
58929;BMP180;44713;53.378;10.022;2023-01-28T12:42:45;102522.00;;;4.20
58929;BMP180;44713;53.378;10.022;2023-01-28T12:45:37;102520.00;;;4.30
58929;BMP180;44713;53.378;10.022;2023-01-28T12:48:17;102523.00;;;4.30
58929;BMP180;44713;53.378;10.022;2023-01-28T12:50:51;102519.00;;;4.20
58929;BMP180;44713;53.378;10.022;2023-01-28T12:54:00;102520.00;;;4.20
58929;BMP180;44713;53.378;10.022;2023-01-28T12:56:22;102509.00;;;4.20
58929;BMP180;44713;53.378;10.022;2023-01-28T12:58:59;102499.00;;;4.30
58929;BMP180;44713;53.378;10.022;2023-01-28T13:01:53;102498.00;;;4.40
58929;BMP180;44713;53.378;10.022;2023-01-28T13:04:38;102489.00;;;4.20
58929;BMP180;44713;53.378;10.022;2023-01-28T13:07:12;102496.00;;;4.40
58929;BMP180;44713;53.378;10.022;2023-01-28T13:09:50;102485.00;;;4.50
58929;BMP180;44713;53.378;10.022;2023-01-28T13:12:17;102486.00;;;4.60
58929;BMP180;44713;53.378;10.022;2023-01-28T13:14:43;102482.00;;;4.60
58929;BMP180;44713;53.378;10.022;2023-01-28T13:17:24;102479.00;;;4.50
58929;BMP180;44713;53.378;10.022;2023-01-28T13:19:49;102469.00;;;4.70
58929;BMP180;44713;53.378;10.022;2023-01-28T13:22:32;102473.00;;;4.80
58929;BMP180;44713;53.378;10.022;2023-01-28T13:25:22;102470.00;;;4.70
58929;BMP180;44713;53.378;10.022;2023-01-28T13:28:02;102484.00;;;4.80
58929;BMP180;44713;53.378;10.022;2023-01-28T13:30:30;102479.00;;;4.70
58929;BMP180;44713;53.378;10.022;2023-01-28T13:33:06;102482.00;;;4.50
58929;BMP180;44713;53.378;10.022;2023-01-28T13:35:52;102472.00;;;4.20
58929;BMP180;44713;53.378;10.022;2023-01-28T13:38:20;102476.00;;;4.30
58929;BMP180;44713;53.378;10.022;2023-01-28T13:40:57;102484.00;;;4.30
58929;BMP180;44713;53.378;10.022;2023-01-28T13:43:36;102495.00;;;4.20
58929;BMP180;44713;53.378;10.022;2023-01-28T13:46:08;102496.00;;;4.30
58929;BMP180;44713;53.378;10.022;2023-01-28T13:48:45;102497.00;;;4.10
58929;BMP180;44713;53.378;10.022;2023-01-28T13:51:39;102502.00;;;4.00
58929;BMP180;44713;53.378;10.022;2023-01-28T13:54:18;102493.00;;;4.10
58929;BMP180;44713;53.378;10.022;2023-01-28T13:59:41;102504.00;;;4.20
58929;BMP180;44713;53.378;10.022;2023-01-28T14:02:27;102506.00;;;4.30
58929;BMP180;44713;53.378;10.022;2023-01-28T14:11:13;102536.00;;;4.30
58929;BMP180;44713;53.378;10.022;2023-01-28T14:16:37;102527.00;;;4.30
58929;BMP180;44713;53.378;10.022;2023-01-28T14:19:10;102532.00;;;4.40
58929;BMP180;44713;53.378;10.022;2023-01-28T14:21:37;102531.00;;;4.30
58929;BMP180;44713;53.378;10.022;2023-01-28T14:24:03;102536.00;;;4.40
58929;BMP180;44713;53.378;10.022;2023-01-28T14:26:42;102533.00;;;4.30
58929;BMP180;44713;53.378;10.022;2023-01-28T14:31:52;102521.00;;;4.30
58929;BMP180;44713;53.378;10.022;2023-01-28T14:34:27;102517.00;;;4.30
58929;BMP180;44713;53.378;10.022;2023-01-28T14:36:56;102520.00;;;4.30
58929;BMP180;44713;53.378;10.022;2023-01-28T14:39:26;102525.00;;;4.20
58929;BMP180;44713;53.378;10.022;2023-01-28T14:41:53;102520.00;;;4.20
58929;BMP180;44713;53.378;10.022;2023-01-28T14:44:29;102504.00;;;4.20
58929;BMP180;44713;53.378;10.022;2023-01-28T14:49:59;102515.00;;;4.00
58929;BMP180;44713;53.378;10.022;2023-01-28T14:56:12;102515.00;;;3.90
58929;BMP180;44713;53.378;10.022;2023-01-28T14:58:28;102521.00;;;3.90
58929;BMP180;44713;53.378;10.022;2023-01-28T15:00:57;102542.00;;;3.80
58929;BMP180;44713;53.378;10.022;2023-01-28T15:03:27;102548.00;;;3.70
58929;BMP180;44713;53.378;10.022;2023-01-28T15:08:27;102546.00;;;3.70
58929;BMP180;44713;53.378;10.022;2023-01-28T15:10:56;102546.00;;;3.60
58929;BMP180;44713;53.378;10.022;2023-01-28T15:13:28;102550.00;;;3.60
58929;BMP180;44713;53.378;10.022;2023-01-28T15:15:54;102552.00;;;3.70
58929;BMP180;44713;53.378;10.022;2023-01-28T15:18:31;102557.00;;;3.50
58929;BMP180;44713;53.378;10.022;2023-01-28T15:20:57;102548.00;;;3.60
58929;BMP180;44713;53.378;10.022;2023-01-28T15:23:30;102562.00;;;3.60
58929;BMP180;44713;53.378;10.022;2023-01-28T15:25:57;102561.00;;;3.60
58929;BMP180;44713;53.378;10.022;2023-01-28T15:30:48;102549.00;;;3.70
58929;BMP180;44713;53.378;10.022;2023-01-28T15:33:15;102538.00;;;3.60